• Join FlightAware (Why Join?)
  • Login
  • US Flag 
06:50AM EST


 

Airport Tracker/Info


-or-


 

Live Flight TrackerFlight Track Log ✈ N789EX ✈ 26-Mar-2014 ✈ KBFI - KBFI

Flight Track Log - Related Links

Times and Time Zones

All times are in EDT time to prevent confusion due to time zone crossing. See the N789EX flight status page for this flight to view local times or setup timezone preferences in your user account.

Time Position Orientation Groundspeed Altitude Reporting Facility
EDT Latitude Longitude Course Direction KTS MPH feet Rate Location/Type
12:50PM 47.5101 -122.2840 146° Southeast 182 209 1,700  Level FlightAware ADS-B
12:51PM 47.5006 -122.2750 144° Southeast 202 232 2,200 2,455 Climbing FlightAware ADS-B
12:51PM 47.4932 -122.2660 143° Southeast 216 249 2,600 2,471 Climbing FlightAware ADS-B
12:51PM 47.4864 -122.2590 144° Southeast 226 260 2,900 2,571 Climbing FlightAware ADS-B
12:51PM 47.4750 -122.2470 145° Southeast 244 281 3,500 2,824 Climbing FlightAware ADS-B
12:51PM 47.4711 -122.2430 142° Southeast 247 284 3,700 2,571 Climbing FlightAware ADS-B
12:51PM 47.4685 -122.2400 138° Southeast 250 288 3,800 1,714 Climbing FlightAware ADS-B
12:51PM 47.4660 -122.2360 133° Southeast 251 289 3,900 3,000 Climbing FlightAware ADS-B
12:51PM 47.4632 -122.2300 124° Southeast 253 291 4,200 4,500 Climbing FlightAware ADS-B
12:51PM 47.4610 -122.2230 113° Southeast 255 293 4,500 3,750 Climbing FlightAware ADS-B
12:52PM 47.4596 -122.2160 106° East 257 296 4,700 4,286 Climbing FlightAware ADS-B
12:52PM 47.4590 -122.2110 97° East 259 298 5,000 5,000 Climbing FlightAware ADS-B
12:52PM 47.4589 -122.2060 91° East 261 300 5,200 3,429 Climbing FlightAware ADS-B
12:52PM 47.4592 -122.1990 84° East 262 302 5,400 3,429 Climbing FlightAware ADS-B
12:52PM 47.4601 -122.1930 76° East 264 304 5,600 4,000 Climbing FlightAware ADS-B
12:52PM 47.4612 -122.1880 71° East 265 305 5,800 3,000 Climbing FlightAware ADS-B
12:52PM 47.4627 -122.1830 68° East 266 306 5,900 2,625 Climbing FlightAware ADS-B
12:52PM 47.4696 -122.1610 64° Northeast 274 315 6,500 3,000 Climbing FlightAware ADS-B
12:52PM 47.4782 -122.1360 64° Northeast 279 321 7,300 3,200 Climbing FlightAware ADS-B
12:53PM 47.4864 -122.1110 66° East 286 329 8,100 3,391 Climbing FlightAware ADS-B
12:53PM 47.4903 -122.0950 71° East 287 330 8,600 4,000 Climbing FlightAware ADS-B
12:53PM 47.4964 -122.0660 74° East 284 327 9,700 3,750 Climbing FlightAware ADS-B
12:53PM 47.5069 -122.0110 75° East 287 330 11,600 3,581 Climbing FlightAware ADS-B
12:54PM 47.5176 -121.9520 75° East 293 337 13,400 3,429 Climbing FlightAware ADS-B
12:54PM 47.5274 -121.8987 75° East 303 349 14,800 3,097 Climbing FlightAware ADS-B (CYVR)
12:54PM 47.5295 -121.8870 75° East 305 351 15,000 2,400 Climbing FlightAware ADS-B
12:55PM 47.5406 -121.8250 75° East 326 375 16,200 1,909 Climbing FlightAware ADS-B
12:55PM 47.5451 -121.7990 75° East 346 398 16,400 1,125 Climbing FlightAware ADS-B (CYVR)
12:56PM 47.5532 -121.7530 76° East 364 419 16,800 1,250 Climbing FlightAware ADS-B
12:56PM 47.5553 -121.7370 81° East 372 428 16,900 1,385 Climbing FlightAware ADS-B
12:56PM 47.5584 -121.6860 86° East 391 450 17,400 1,421 Climbing FlightAware ADS-B
12:56PM 47.5581 -121.6350 94° East 408 470 17,800 1,556 Climbing FlightAware ADS-B
12:56PM 47.5564 -121.6097 96° East 416 479 18,100 2,063 Climbing FlightAware ADS-B (CYVR)
12:57PM 47.5524 -121.5490 96° East 425 489 18,900 2,500 Climbing FlightAware ADS-B
12:57PM 47.5494 -121.5060 96° East 430 495 19,600 2,800 Climbing FlightAware ADS-B (CYVR)
12:57PM 47.5460 -121.4570 96° East 434 499 20,300 2,471 Climbing FlightAware ADS-B
12:58PM 47.5424 -121.4067 96° East 440 506 21,000 2,400 Climbing FlightAware ADS-B (CYVR)
12:58PM 47.5394 -121.3670 96° East 446 513 21,500 2,372 Climbing FlightAware ADS-B
12:58PM 47.5323 -121.2740 96° East 457 526 22,700 2,250 Climbing FlightAware ADS-B
12:58PM 47.5303 -121.2478 96° East 459 528 23,000 1,742 Climbing FlightAware ADS-B (CYVR)
12:59PM 47.5251 -121.1790 96° East 469 540 23,600 2,111 Climbing FlightAware ADS-B
12:59PM 47.5167 -121.0720 96° East 478 550 24,900 2,190 Climbing FlightAware ADS-B
01:00PM 47.5091 -120.9740 97° East 484 557 25,900 1,967 Climbing FlightAware ADS-B
01:00PM 47.5011 -120.8710 97° East 492 566 26,900 1,048 Climbing FlightAware ADS-B
01:01PM 47.4929 -120.7660 97° East 493 567 27,000 97 Climbing FlightAware ADS-B
01:01PM 47.4849 -120.6650 97° East 490 564 27,000  Level FlightAware ADS-B
01:01PM 47.4840 -120.6540 97° East 490 564 27,000  Level FlightAware ADS-B
01:02PM 47.4767 -120.5640 97° East 492 566 27,000  Level FlightAware ADS-B
01:02PM 47.4685 -120.4640 97° East 492 566 27,000  Level FlightAware ADS-B
01:03PM 47.4601 -120.3630 97° East 493 567 27,000  Level FlightAware ADS-B
01:03PM 47.4516 -120.2620 97° East 492 566 27,000  Level FlightAware ADS-B
01:04PM 47.4430 -120.1600 97° East 493 567 27,000  Level FlightAware ADS-B
01:04PM 47.4344 -120.0610 97° East 492 566 27,000 182 Level FlightAware ADS-B
01:05PM 47.4240 -119.9400 97° East 493 567 27,200 735 Climbing FlightAware ADS-B
01:05PM 47.4219 -119.8940 91° East 497 572 27,600 1,615 Climbing FlightAware ADS-B
01:06PM 47.4362 -119.7640 72° East 508 585 28,600 1,660 Climbing FlightAware ADS-B
01:06PM 47.4435 -119.7390 67° East 509 586 28,900 2,250 Climbing FlightAware ADS-B
01:07PM 47.4734 -119.6350 68° East 510 587 30,100 2,764 Climbing FlightAware ADS-B
01:08PM 47.5240 -119.4560 67° East 502 578 33,000 2,362 Climbing FlightAware ADS-B
01:08PM 47.5550 -119.3450 68° East 489 563 33,800 585 Climbing FlightAware ADS-B
01:09PM 47.5889 -119.2169 68° East 495 570 33,800 57 Level Seattle Center
01:10PM 47.6439 -119.0181 68° East 519 597 33,900 49 Climbing Seattle Center
01:11PM 47.6989 -118.8189 68° East 521 600 33,900 -246 Level Seattle Center
01:12PM 47.7567 -118.6053 68° East 528 608 33,400 -1,884 Descending Seattle Center
01:13PM 47.8056 -118.4186 69° East 515 593 30,100 -446 Descending Seattle Center
01:14PM 47.8569 -118.2142 69° East 524 603 32,500 1,820 Climbing Seattle Center
01:15PM 47.9142 -118.0178 66° East 520 598 33,800 689 Climbing Seattle Center
01:16PM 47.9683 -117.8183 68° East 518 596 33,900 -590 Climbing Seattle Center
01:17PM 48.0200 -117.6131 69° East 525 604 32,600 -1,967 Descending Seattle Center
01:18PM 48.0658 -117.4086 71° East 522 601 29,900 -1,820 Descending Seattle Center
01:19PM 48.1133 -117.2083 70° East 514 592 28,900 -992 Descending Seattle Center
01:20PM 48.1606 -117.0042 71° East 514 592 27,900 -942 Descending Seattle Center
01:21PM 48.2067 -116.7964 72° East 521 600 27,000 -49 Descending Seattle Center
01:22PM 48.2114 -116.5986 88° East 502 578 27,800 1,082 Climbing Seattle Center
01:23PM 48.1036 -116.5319 158° South 464 534 29,200 1,082 Climbing Seattle Center
01:24PM 47.9889 -116.5719 193° South 433 498 30,000 -393 Climbing Seattle Center
01:25PM 47.8733 -116.6083 192° South 425 489 28,400 -1,377 Descending Seattle Center
01:26PM 47.7542 -116.6536 194° South 436 502 27,200 -50 Descending Seattle Center
01:27PM 47.6378 -116.6919 193° South 433 498 28,300 1,388 Climbing Seattle Center
01:28PM 47.5181 -116.7272 191° South 432 497 30,000 1,082 Climbing Seattle Center
01:29PM 47.4025 -116.7625 192° South 421 484 30,500 541 Climbing Seattle Center
01:30PM 47.2842 -116.7981 192° South 425 489 31,100 148 Climbing Seattle Center
01:31PM 47.1347 -116.8444 192° South 451 519 30,800 -984 Descending Seattle Center
01:32PM 47.0078 -116.8894 194° South 464 534 29,100 -393 Descending Seattle Center
01:33PM 46.8903 -116.9333 194° South 439 505 30,000 1,180 Climbing Seattle Center
01:34PM 46.7731 -116.9853 197° South 438 504 31,500 738 Climbing Seattle Center
01:35PM 46.6544 -117.0275 194° South 439 505 31,500 -148 Level Seattle Center
01:36PM 46.5333 -117.0622 191° South 441 507 31,200 -197 Descending Seattle Center
01:37PM 46.4147 -117.1011 193° South 439 505 31,100 -50 Descending Seattle Center
01:38PM 46.2936 -117.1364 191° South 442 509 31,100  Level Seattle Center
01:39PM 46.1872 -117.2089 205° Southwest 433 498 31,100  Level Seattle Center
01:40PM 46.1669 -117.3775 260° West 446 513 31,100 -49 Level Seattle Center
01:41PM 46.2481 -117.5169 310° West 469 540 31,000  Descending Seattle Center
01:42PM 46.3453 -117.6417 318° Northwest 468 539 31,100 49 Climbing Seattle Center
01:43PM 46.4428 -117.7661 319° Northwest 468 539 31,100  Level Seattle Center
01:44PM 46.5381 -117.8897 318° Northwest 465 535 31,100  Level Seattle Center
01:45PM 46.6322 -118.0125 318° Northwest 460 529 31,100 -492 Level Seattle Center
01:46PM 46.7469 -118.1647 318° Northwest 463 533 30,100 -590 Descending Seattle Center
01:47PM 46.8392 -118.2850 318° Northwest 451 519 29,900 -15 Descending Seattle Center
01:53PM 47.2129 -119.1720 300° West 426 490 30,000 16 Climbing FlightAware ADS-B
01:54PM 47.2441 -119.2520 300° West 426 490 30,000  Level FlightAware ADS-B
01:54PM 47.2739 -119.3290 300° West 426 490 30,000  Level FlightAware ADS-B
01:55PM 47.3077 -119.4170 300° West 425 489 30,000  Level FlightAware ADS-B
01:56PM 47.3489 -119.5230 300° West 426 490 30,000 -411 Level FlightAware ADS-B
01:56PM 47.3787 -119.6010 300° West 424 488 29,500 -1,180 Descending FlightAware ADS-B
01:57PM 47.4077 -119.6770 299° West 421 484 28,800 -1,574 Descending FlightAware ADS-B
01:57PM 47.4374 -119.7550 299° West 420 483 27,900 -1,619 Descending FlightAware ADS-B
01:58PM 47.4676 -119.8340 299° West 416 479 27,100 -1,500 Descending FlightAware ADS-B
01:58PM 47.4974 -119.9120 299° West 411 473 26,300 -1,452 Descending FlightAware ADS-B
01:59PM 47.5254 -119.9860 299° West 409 471 25,600 -1,352 Descending FlightAware ADS-B
01:59PM 47.5623 -120.0840 299° West 409 471 24,700 -1,250 Descending FlightAware ADS-B
02:00PM 47.5901 -120.1580 299° West 400 460 24,100 -636 Descending FlightAware ADS-B
02:01PM 47.6218 -120.2430 299° West 400 460 24,000 -91 Descending FlightAware ADS-B
02:01PM 47.6492 -120.3160 299° West 400 460 24,000  Level FlightAware ADS-B
02:01PM 47.6660 -120.3610 298° West 400 460 24,000  Level FlightAware ADS-B
02:02PM 47.6727 -120.3830 292° West 397 457 24,000  Level FlightAware ADS-B
02:02PM 47.6859 -120.4620 277° West 391 450 24,000  Level FlightAware ADS-B
02:03PM 47.6910 -120.5430 276° West 391 450 24,000  Level FlightAware ADS-B
02:03PM 47.6942 -120.5912 276° West 392 451 24,000  Level FlightAware ADS-B
02:03PM 47.6962 -120.6230 275° West 392 451 24,000  Level FlightAware ADS-B
02:04PM 47.7013 -120.7030 275° West 392 451 24,000  Level FlightAware ADS-B
02:04PM 47.7057 -120.7721 275° West 391 450 24,000  Level FlightAware ADS-B (CYVR)
02:04PM 47.7063 -120.7830 275° West 389 448 24,000 -2,647 Level FlightAware ADS-B
02:05PM 47.7112 -120.8620 275° West 389 448 22,500 -2,900 Descending FlightAware ADS-B
02:05PM 47.7161 -120.9420 275° West 388 447 21,100 -2,800 Descending FlightAware ADS-B
02:06PM 47.7210 -121.0220 275° West 387 445 19,700 -2,833 Descending FlightAware ADS-B
02:06PM 47.7220 -121.0380 275° West 387 445 19,400 -2,516 Descending FlightAware ADS-B (CYVR)
02:06PM 47.7258 -121.1020 275° West 384 442 18,400 -2,400 Descending FlightAware ADS-B
02:07PM 47.7306 -121.1810 275° West 378 435 17,200 -2,400 Descending FlightAware ADS-B
02:07PM 47.7351 -121.2580 275° West 373 429 16,000 -2,478 Descending FlightAware ADS-B
02:07PM 47.7375 -121.2988 275° West 387 445 15,300 -2,323 Descending FlightAware ADS-B (CYVR)
02:08PM 47.7396 -121.3350 275° West 368 423 14,800 -2,133 Descending FlightAware ADS-B
02:08PM 47.7439 -121.4110 275° West 361 415 13,700 -2,333 Descending FlightAware ADS-B
02:08PM 47.7447 -121.4250 275° West 359 413 13,400 -2,400 Descending FlightAware ADS-B (CYVR)
02:09PM 47.7480 -121.4840 275° West 355 409 12,500 -2,444 Descending FlightAware ADS-B
02:09PM 47.7521 -121.5570 275° West 350 403 11,200 -2,200 Descending FlightAware ADS-B
02:10PM 47.7560 -121.6290 275° West 347 399 10,300 -1,742 Descending FlightAware ADS-B
02:10PM 47.7561 -121.6300 275° West 347 399 10,300  Level FlightAware ADS-B (CYVR)
02:10PM 47.7600 -121.7010 275° West 345 397 10,300  Level FlightAware ADS-B
02:10PM 47.7604 -121.7075 275° West 344 396 10,300 -200 Level FlightAware ADS-B (CYVR)
02:11PM 47.7638 -121.7690 275° West 302 348 10,200 -308 Descending FlightAware ADS-B
02:11PM 47.7660 -121.7960 279° West 282 325 10,100 -400 Descending FlightAware ADS-B
02:11PM 47.7662 -121.7981 279° West 282 325 10,100 -1,500 Level FlightAware ADS-B (CYVR)
02:11PM 47.7695 -121.8260 280° West 270 311 9,700 -1,500 Descending FlightAware ADS-B
02:11PM 47.7710 -121.8385 280° West 257 296 9,400 -1,600 Descending FlightAware ADS-B (CYVR)
02:11PM 47.7728 -121.8530 280° West 256 295 9,300 -1,667 Descending FlightAware ADS-B
02:12PM 47.7760 -121.8790 281° West 242 278 8,900 -1,680 Descending FlightAware ADS-B
02:12PM 47.7779 -121.8940 280° West 239 275 8,600 -1,846 Descending FlightAware ADS-B
02:12PM 47.7785 -121.9000 277° West 237 273 8,500 -1,200 Descending FlightAware ADS-B
02:12PM 47.7786 -121.9019 277° West 237 273 8,500 -2,000 Level FlightAware ADS-B (CYVR)
02:12PM 47.7791 -121.9100 274° West 235 270 8,300 -2,286 Descending FlightAware ADS-B
02:12PM 47.7797 -121.9350 271° West 233 268 7,700 -2,323 Descending FlightAware ADS-B
02:12PM 47.7800 -121.9590 271° West 231 266 7,100 -2,400 Descending FlightAware ADS-B
02:13PM 47.7803 -121.9840 271° West 233 268 6,500 -2,400 Descending FlightAware ADS-B
02:13PM 47.7805 -121.9990 270° West 235 270 6,100 -3,130 Descending FlightAware ADS-B
02:13PM 47.7805 -122.0210 270° West 237 273 5,300 -3,840 Descending FlightAware ADS-B
02:13PM 47.7804 -122.0410 269° West 244 281 4,500 -3,500 Descending FlightAware ADS-B
02:13PM 47.7801 -122.0610 269° West 251 289 3,900 -2,444 Descending FlightAware ADS-B
02:14PM 47.7797 -122.0870 269° West 247 284 3,400 -1,161 Descending FlightAware ADS-B
02:14PM 47.7793 -122.1140 269° West 248 285 3,300 -188 Descending FlightAware ADS-B
02:14PM 47.7790 -122.1400 269° West 247 284 3,300  Level FlightAware ADS-B
02:15PM 47.7787 -122.1670 269° West 249 287 3,300  Level FlightAware ADS-B
02:15PM 47.7785 -122.1940 269° West 248 285 3,300  Level FlightAware ADS-B
02:15PM 47.7782 -122.2230 269° West 249 287 3,300  Level FlightAware ADS-B
02:15PM 47.7780 -122.2510 269° West 249 287 3,300  Level FlightAware ADS-B
02:16PM 47.7779 -122.2930 270° West 251 289 3,300  Level FlightAware ADS-B
02:16PM 47.7779 -122.3210 270° West 250 288 3,300  Level FlightAware ADS-B
02:16PM 47.7780 -122.3520 270° West 246 283 3,300 -419 Level FlightAware ADS-B
02:17PM 47.7686 -122.3850 268° West 239 275 3,000 -632 Descending FlightAware ADS-B
02:17PM 47.7584 -122.3990 227° Southwest 215 247 2,900 -480 Descending FlightAware ADS-B
02:18PM 47.7333 -122.4320 221° Southwest 208 239 2,600 -304 Descending FlightAware ADS-B
02:18PM 47.7010 -122.4450 193° South 172 198 2,500 -71 Descending FlightAware ADS-B
02:19PM 47.6712 -122.4220 193° South 172 198 2,500  Level FlightAware ADS-B
02:19PM 47.6658 -122.4180 151° Southeast 176 203 2,500  Level FlightAware ADS-B
02:19PM 47.6532 -122.4070 150° Southeast 173 199 2,500  Level FlightAware ADS-B
02:20PM 47.6418 -122.3970 150° Southeast 173 199 2,500  Level FlightAware ADS-B
02:20PM 47.6315 -122.3890 150° Southeast 164 189 2,500 -387 Level FlightAware ADS-B
02:20PM 47.6220 -122.3800 150° Southeast 153 176 2,300 -769 Descending FlightAware ADS-B
02:21PM 47.6079 -122.3680 150° Southeast 145 167 2,000 -842 Descending FlightAware ADS-B
02:21PM 47.5880 -122.3510 150° Southeast 148 170 1,500 -1,071 Descending FlightAware ADS-B
02:22PM 47.5594 -122.3272 150° Southeast 145 167 500 -1,111 Descending Seattle Center
02:22PM 47.5581 -122.3267 165° South 151 174 500 -295 Level Seattle Center
02:23PM 47.5311 -122.3033 150° Southeast 147 169 200 -295 Descending Seattle Center
02:23PM 47.5203 -122.2925 146° Southeast 150 173 200  Level Seattle Center
02:25PM 47.5167 -122.3000 180° South  Level FlightAware Approximate
02:32PM 47.5300 -122.3020 97° East  Level Estimated